CheckWX is a tool to help pilots better visualize weather data.  It is not intended as a substitute for an official pre-flight weather briefing.

13:51:53 UTC

KEWB METAR
New Bedford Regional Airport
New Bedford, Massachusetts, USA
Current

59 mins ago

KEWB 211253Z 32004KT 10SM CLR 02/M01 A3012 RMK AO2 SLP199 T00221011
Observed
Nov-21 @ 12:53 UTC
Wind
  • 320° at 4 KTS
Visibility
10 SM
Flight Rules
VFR
Cloud Levels
  • Clear skies
Temperature
C / 36°F
Dewpoint
-1°C / 30°F
Humidity
81%
Altimeter
30.12" Hg
Pressure
1020.02 hPa
Previous

2 hours ago

KEWB 211153Z 32005KT 10SM CLR 01/M02 A3010 RMK AO2 SLP195 70002 T00061017 10022 20006 53023
Observed
Nov-21 @ 11:53 UTC
Wind
  • 320° at 5 KTS
Visibility
10 SM
Flight Rules
VFR
Cloud Levels
  • Clear skies
Temperature
C / 34°F
Dewpoint
-2°C / 28°F
Humidity
81%
Altimeter
30.1" Hg
Pressure
1019.32 hPa
24 Hour Rain
0.02"
Previous

3 hours ago

KEWB 211053Z AUTO 33004KT 10SM CLR 01/M01 A3007 RMK AO2 SLP184 T00061011
Observed
Nov-21 @ 10:53 UTC
Wind
  • 330° at 4 KTS
Visibility
10 SM
Flight Rules
VFR
Cloud Levels
  • Clear skies
Temperature
C / 34°F
Dewpoint
-1°C / 30°F
Humidity
87%
Altimeter
30.07" Hg
Pressure
1018.32 hPa